sensor_id;sensor_type;location;lat;lon;timestamp;pressure;altitude;pressure_sealevel;temperature;humidity
25510;BME280;13413;52.336;21.200;2022-09-13T00:03:57;100302.87;;;13.42;65.51
25510;BME280;13413;52.336;21.200;2022-09-13T00:08:26;100311.23;;;13.41;65.43
25510;BME280;13413;52.336;21.200;2022-09-13T00:12:55;100317.65;;;13.43;65.21
25510;BME280;13413;52.336;21.200;2022-09-13T00:17:23;100318.16;;;13.35;65.26
25510;BME280;13413;52.336;21.200;2022-09-13T00:21:54;100315.05;;;13.26;65.12
25510;BME280;13413;52.336;21.200;2022-09-13T00:26:23;100316.96;;;13.22;65.04
25510;BME280;13413;52.336;21.200;2022-09-13T00:30:52;100313.30;;;13.15;64.93
25510;BME280;13413;52.336;21.200;2022-09-13T00:35:21;100310.48;;;13.06;64.87
25510;BME280;13413;52.336;21.200;2022-09-13T00:39:49;100307.31;;;13.03;64.82
25510;BME280;13413;52.336;21.200;2022-09-13T00:44:48;100314.44;;;12.90;64.92
25510;BME280;13413;52.336;21.200;2022-09-13T00:49:20;100308.09;;;12.80;64.77
25510;BME280;13413;52.336;21.200;2022-09-13T00:53:51;100309.86;;;12.67;64.74
25510;BME280;13413;52.336;21.200;2022-09-13T00:58:22;100309.17;;;12.67;64.73
25510;BME280;13413;52.336;21.200;2022-09-13T01:02:54;100312.17;;;12.62;64.67
25510;BME280;13413;52.336;21.200;2022-09-13T01:07:22;100310.73;;;12.50;64.60
25510;BME280;13413;52.336;21.200;2022-09-13T01:11:54;100313.77;;;12.46;64.64
25510;BME280;13413;52.336;21.200;2022-09-13T01:16:25;100314.36;;;12.44;64.79
25510;BME280;13413;52.336;21.200;2022-09-13T01:21:17;100314.91;;;12.45;64.57
25510;BME280;13413;52.336;21.200;2022-09-13T01:26:16;100314.70;;;12.44;64.52
25510;BME280;13413;52.336;21.200;2022-09-13T01:30:56;100311.17;;;12.41;64.46
25510;BME280;13413;52.336;21.200;2022-09-13T01:35:41;100319.38;;;12.34;64.50
25510;BME280;13413;52.336;21.200;2022-09-13T01:40:23;100316.56;;;12.21;64.46
25510;BME280;13413;52.336;21.200;2022-09-13T01:45:05;100316.56;;;12.15;64.39
25510;BME280;13413;52.336;21.200;2022-09-13T01:49:45;100314.71;;;12.14;64.36
25510;BME280;13413;52.336;21.200;2022-09-13T01:54:19;100306.29;;;12.10;64.26
25510;BME280;13413;52.336;21.200;2022-09-13T01:58:56;100301.99;;;11.96;64.39
25510;BME280;13413;52.336;21.200;2022-09-13T02:03:29;100297.46;;;11.88;64.46
25510;BME280;13413;52.336;21.200;2022-09-13T02:08:02;100303.13;;;11.90;64.36
25510;BME280;13413;52.336;21.200;2022-09-13T02:12:35;100301.16;;;11.91;64.54
25510;BME280;13413;52.336;21.200;2022-09-13T02:17:06;100297.25;;;11.87;64.47
25510;BME280;13413;52.336;21.200;2022-09-13T02:21:38;100295.98;;;11.84;64.53
25510;BME280;13413;52.336;21.200;2022-09-13T02:26:10;100294.13;;;11.80;64.42
25510;BME280;13413;52.336;21.200;2022-09-13T02:31:00;100292.66;;;11.74;64.43
25510;BME280;13413;52.336;21.200;2022-09-13T02:35:02;100284.74;;;11.73;64.69
25510;BME280;13413;52.336;21.200;2022-09-13T02:38:36;100280.04;;;11.73;64.62
25510;BME280;13413;52.336;21.200;2022-09-13T02:43:09;100274.20;;;11.73;64.61
25510;BME280;13413;52.336;21.200;2022-09-13T02:47:43;100272.13;;;11.65;64.79
25510;BME280;13413;52.336;21.200;2022-09-13T02:52:23;100275.02;;;11.64;64.73
25510;BME280;13413;52.336;21.200;2022-09-13T02:57:00;100271.20;;;11.64;64.78
25510;BME280;13413;52.336;21.200;2022-09-13T03:01:32;100265.55;;;11.57;64.85
25510;BME280;13413;52.336;21.200;2022-09-13T03:06:02;100257.88;;;11.41;64.80
25510;BME280;13413;52.336;21.200;2022-09-13T03:10:39;100251.26;;;11.34;65.14
25510;BME280;13413;52.336;21.200;2022-09-13T03:15:18;100251.35;;;11.42;64.95
25510;BME280;13413;52.336;21.200;2022-09-13T03:19:56;100247.02;;;11.32;64.93
25510;BME280;13413;52.336;21.200;2022-09-13T03:24:35;100244.37;;;11.24;65.01
25510;BME280;13413;52.336;21.200;2022-09-13T03:29:22;100246.63;;;11.13;65.13
25510;BME280;13413;52.336;21.200;2022-09-13T03:33:56;100248.36;;;11.06;65.10
25510;BME280;13413;52.336;21.200;2022-09-13T03:38:30;100244.39;;;11.11;65.05
25510;BME280;13413;52.336;21.200;2022-09-13T03:43:03;100236.23;;;11.07;64.96
25510;BME280;13413;52.336;21.200;2022-09-13T03:47:35;100232.12;;;10.84;65.15
25510;BME280;13413;52.336;21.200;2022-09-13T03:52:03;100225.34;;;10.71;65.51
25510;BME280;13413;52.336;21.200;2022-09-13T03:56:32;100227.17;;;10.67;65.48
25510;BME280;13413;52.336;21.200;2022-09-13T04:01:00;100226.35;;;10.78;65.20
25510;BME280;13413;52.336;21.200;2022-09-13T04:10:11;100222.43;;;10.85;64.96
25510;BME280;13413;52.336;21.200;2022-09-13T04:14:39;100221.56;;;10.82;65.26
25510;BME280;13413;52.336;21.200;2022-09-13T04:19:07;100220.14;;;10.88;65.04
25510;BME280;13413;52.336;21.200;2022-09-13T04:23:34;100217.84;;;10.91;65.08
25510;BME280;13413;52.336;21.200;2022-09-13T04:28:03;100216.06;;;10.81;65.18
25510;BME280;13413;52.336;21.200;2022-09-13T04:32:31;100221.66;;;10.85;65.29
25510;BME280;13413;52.336;21.200;2022-09-13T04:36:59;100220.31;;;10.83;65.49
25510;BME280;13413;52.336;21.200;2022-09-13T04:41:28;100222.30;;;10.82;65.54
25510;BME280;13413;52.336;21.200;2022-09-13T04:45:59;100225.11;;;10.95;65.55
25510;BME280;13413;52.336;21.200;2022-09-13T04:50:28;100230.49;;;11.02;65.56
25510;BME280;13413;52.336;21.200;2022-09-13T05:00:33;100228.59;;;10.78;65.87
25510;BME280;13413;52.336;21.200;2022-09-13T05:05:01;100224.09;;;10.77;66.18
25510;BME280;13413;52.336;21.200;2022-09-13T05:09:30;100218.11;;;10.90;66.39
25510;BME280;13413;52.336;21.200;2022-09-13T05:13:59;100222.13;;;11.08;66.39
25510;BME280;13413;52.336;21.200;2022-09-13T05:18:28;100225.10;;;11.10;66.11
25510;BME280;13413;52.336;21.200;2022-09-13T05:22:57;100226.11;;;11.04;66.12
25510;BME280;13413;52.336;21.200;2022-09-13T05:27:24;100221.59;;;10.76;66.38
25510;BME280;13413;52.336;21.200;2022-09-13T05:31:52;100220.31;;;10.67;66.82
25510;BME280;13413;52.336;21.200;2022-09-13T05:36:20;100222.61;;;10.81;66.83
25510;BME280;13413;52.336;21.200;2022-09-13T05:40:54;100220.39;;;10.99;67.04
25510;BME280;13413;52.336;21.200;2022-09-13T05:45:22;100224.63;;;11.08;66.98
25510;BME280;13413;52.336;21.200;2022-09-13T05:49:51;100222.66;;;11.04;67.31
25510;BME280;13413;52.336;21.200;2022-09-13T05:54:19;100215.06;;;10.98;67.50
25510;BME280;13413;52.336;21.200;2022-09-13T06:03:28;100202.88;;;11.12;68.13
25510;BME280;13413;52.336;21.200;2022-09-13T06:07:57;100192.30;;;11.25;68.16
25510;BME280;13413;52.336;21.200;2022-09-13T06:12:25;100194.29;;;11.48;68.11
25510;BME280;13413;52.336;21.200;2022-09-13T06:16:53;100186.67;;;11.54;68.43
25510;BME280;13413;52.336;21.200;2022-09-13T06:21:22;100186.24;;;11.52;68.67
25510;BME280;13413;52.336;21.200;2022-09-13T06:26:04;100188.15;;;11.50;68.75
25510;BME280;13413;52.336;21.200;2022-09-13T06:30:32;100192.05;;;11.53;69.09
25510;BME280;13413;52.336;21.200;2022-09-13T06:40:39;100186.96;;;11.90;69.27
25510;BME280;13413;52.336;21.200;2022-09-13T06:45:08;100187.70;;;12.06;69.73
25510;BME280;13413;52.336;21.200;2022-09-13T06:49:36;100180.95;;;12.25;69.67
25510;BME280;13413;52.336;21.200;2022-09-13T06:54:06;100191.23;;;12.46;70.03
25510;BME280;13413;52.336;21.200;2022-09-13T06:58:36;100187.22;;;12.60;70.21
25510;BME280;13413;52.336;21.200;2022-09-13T07:03:05;100191.09;;;12.67;70.15
25510;BME280;13413;52.336;21.200;2022-09-13T07:07:34;100191.10;;;12.65;70.66
25510;BME280;13413;52.336;21.200;2022-09-13T07:12:03;100182.17;;;12.64;71.00
25510;BME280;13413;52.336;21.200;2022-09-13T07:16:33;100187.13;;;12.82;71.38
25510;BME280;13413;52.336;21.200;2022-09-13T07:21:03;100184.75;;;13.09;71.51
25510;BME280;13413;52.336;21.200;2022-09-13T07:25:30;100181.77;;;13.32;71.58
25510;BME280;13413;52.336;21.200;2022-09-13T07:29:59;100178.96;;;13.53;71.46
25510;BME280;13413;52.336;21.200;2022-09-13T07:34:27;100168.56;;;13.67;71.75
25510;BME280;13413;52.336;21.200;2022-09-13T07:38:54;100166.32;;;13.86;71.84
25510;BME280;13413;52.336;21.200;2022-09-13T07:43:24;100174.72;;;14.17;71.83
25510;BME280;13413;52.336;21.200;2022-09-13T07:47:53;100169.31;;;14.40;71.71
25510;BME280;13413;52.336;21.200;2022-09-13T07:52:22;100171.25;;;14.57;71.57
25510;BME280;13413;52.336;21.200;2022-09-13T07:56:49;100174.29;;;14.98;71.46
25510;BME280;13413;52.336;21.200;2022-09-13T08:01:20;100173.15;;;15.14;71.17
25510;BME280;13413;52.336;21.200;2022-09-13T08:10:58;100181.72;;;15.73;70.68
25510;BME280;13413;52.336;21.200;2022-09-13T08:15:25;100175.77;;;16.15;70.58
25510;BME280;13413;52.336;21.200;2022-09-13T08:19:54;100166.56;;;16.35;69.84
25510;BME280;13413;52.336;21.200;2022-09-13T08:24:22;100159.77;;;16.57;68.91
25510;BME280;13413;52.336;21.200;2022-09-13T08:28:56;100159.94;;;16.80;68.60
25510;BME280;13413;52.336;21.200;2022-09-13T08:33:24;100152.47;;;17.02;68.40
25510;BME280;13413;52.336;21.200;2022-09-13T08:37:52;100150.20;;;17.29;67.35
25510;BME280;13413;52.336;21.200;2022-09-13T08:42:29;100145.52;;;17.50;66.83
25510;BME280;13413;52.336;21.200;2022-09-13T08:47:20;100141.89;;;17.72;65.63
25510;BME280;13413;52.336;21.200;2022-09-13T08:52:47;100143.14;;;17.90;64.70
25510;BME280;13413;52.336;21.200;2022-09-13T08:56:21;100144.81;;;18.13;64.66
25510;BME280;13413;52.336;21.200;2022-09-13T09:00:57;100142.37;;;18.29;62.77
25510;BME280;13413;52.336;21.200;2022-09-13T09:05:27;100139.42;;;18.53;62.69
25510;BME280;13413;52.336;21.200;2022-09-13T09:09:57;100143.42;;;18.91;61.29
25510;BME280;13413;52.336;21.200;2022-09-13T09:20:14;100138.27;;;19.25;58.96
25510;BME280;13413;52.336;21.200;2022-09-13T09:24:46;100132.92;;;19.47;57.91
25510;BME280;13413;52.336;21.200;2022-09-13T09:29:19;100127.98;;;19.55;57.51
25510;BME280;13413;52.336;21.200;2022-09-13T09:33:59;100125.69;;;19.53;57.18
25510;BME280;13413;52.336;21.200;2022-09-13T09:38:54;100119.52;;;19.86;57.07
25510;BME280;13413;52.336;21.200;2022-09-13T09:42:50;100117.30;;;19.98;56.81
25510;BME280;13413;52.336;21.200;2022-09-13T09:47:19;100109.08;;;19.88;56.62
25510;BME280;13413;52.336;21.200;2022-09-13T09:51:49;100105.89;;;19.85;56.10
25510;BME280;13413;52.336;21.200;2022-09-13T09:56:22;100101.01;;;19.90;55.33
25510;BME280;13413;52.336;21.200;2022-09-13T10:00:53;100093.93;;;19.73;54.84
25510;BME280;13413;52.336;21.200;2022-09-13T10:05:23;100087.24;;;19.94;55.33
25510;BME280;13413;52.336;21.200;2022-09-13T10:09:59;100072.73;;;20.08;55.14
25510;BME280;13413;52.336;21.200;2022-09-13T10:15:09;100070.70;;;20.19;54.56
25510;BME280;13413;52.336;21.200;2022-09-13T10:18:41;100063.41;;;20.25;54.56
25510;BME280;13413;52.336;21.200;2022-09-13T10:23:18;100059.02;;;20.46;54.24
25510;BME280;13413;52.336;21.200;2022-09-13T10:27:50;100052.98;;;20.72;54.42
25510;BME280;13413;52.336;21.200;2022-09-13T10:32:19;100057.46;;;20.73;52.50
25510;BME280;13413;52.336;21.200;2022-09-13T10:36:53;100054.36;;;20.74;53.03
25510;BME280;13413;52.336;21.200;2022-09-13T10:41:26;100051.73;;;20.95;53.01
25510;BME280;13413;52.336;21.200;2022-09-13T10:45:55;100047.73;;;21.07;52.48
25510;BME280;13413;52.336;21.200;2022-09-13T10:50:27;100042.00;;;20.94;52.02
25510;BME280;13413;52.336;21.200;2022-09-13T10:55:37;100040.54;;;20.62;51.81
25510;BME280;13413;52.336;21.200;2022-09-13T10:59:18;100038.86;;;20.57;52.37
25510;BME280;13413;52.336;21.200;2022-09-13T11:08:54;100030.32;;;20.70;52.78
25510;BME280;13413;52.336;21.200;2022-09-13T11:13:31;100030.98;;;20.68;52.46
25510;BME280;13413;52.336;21.200;2022-09-13T11:18:22;100025.85;;;20.83;52.63
25510;BME280;13413;52.336;21.200;2022-09-13T11:27:52;100014.20;;;20.92;52.11
25510;BME280;13413;52.336;21.200;2022-09-13T11:33:28;100009.40;;;20.74;52.24
25510;BME280;13413;52.336;21.200;2022-09-13T11:42:14;100000.29;;;20.79;52.44
25510;BME280;13413;52.336;21.200;2022-09-13T11:46:47;99995.55;;;20.84;52.62
25510;BME280;13413;52.336;21.200;2022-09-13T11:51:27;99990.23;;;20.73;52.39
25510;BME280;13413;52.336;21.200;2022-09-13T11:56:02;99984.61;;;20.54;52.80
25510;BME280;13413;52.336;21.200;2022-09-13T12:00:35;99977.36;;;20.65;52.80
25510;BME280;13413;52.336;21.200;2022-09-13T12:05:09;99970.58;;;20.79;52.87
25510;BME280;13413;52.336;21.200;2022-09-13T12:09:44;99954.45;;;20.92;52.41
25510;BME280;13413;52.336;21.200;2022-09-13T12:14:18;99948.76;;;20.94;52.45
25510;BME280;13413;52.336;21.200;2022-09-13T12:18:49;99938.56;;;20.88;52.40
25510;BME280;13413;52.336;21.200;2022-09-13T12:23:26;99929.77;;;21.04;52.83
25510;BME280;13413;52.336;21.200;2022-09-13T12:28:55;99921.62;;;21.16;52.86
25510;BME280;13413;52.336;21.200;2022-09-13T12:32:24;99910.47;;;21.24;52.54
25510;BME280;13413;52.336;21.200;2022-09-13T12:43:13;99890.15;;;21.02;52.68
25510;BME280;13413;52.336;21.200;2022-09-13T12:51:49;99884.44;;;20.80;52.61
25510;BME280;13413;52.336;21.200;2022-09-13T12:56:38;99887.41;;;20.72;52.64
25510;BME280;13413;52.336;21.200;2022-09-13T13:06:40;99883.60;;;20.63;53.03
25510;BME280;13413;52.336;21.200;2022-09-13T13:11:14;99883.69;;;20.56;53.01
25510;BME280;13413;52.336;21.200;2022-09-13T13:16:03;99873.52;;;20.52;53.35
25510;BME280;13413;52.336;21.200;2022-09-13T13:19:31;99863.70;;;20.42;53.64
25510;BME280;13413;52.336;21.200;2022-09-13T13:22:52;99853.31;;;20.39;53.85
25510;BME280;13413;52.336;21.200;2022-09-13T13:26:46;99843.92;;;20.33;54.29
25510;BME280;13413;52.336;21.200;2022-09-13T13:30:49;99855.26;;;20.28;54.40
25510;BME280;13413;52.336;21.200;2022-09-13T13:34:45;99848.90;;;20.28;54.70
25510;BME280;13413;52.336;21.200;2022-09-13T13:38:36;99828.67;;;20.17;54.95
25510;BME280;13413;52.336;21.200;2022-09-13T13:41:56;99831.45;;;20.16;55.18
25510;BME280;13413;52.336;21.200;2022-09-13T13:45:24;99836.91;;;20.21;55.18
25510;BME280;13413;52.336;21.200;2022-09-13T13:48:44;99830.13;;;20.22;55.59
25510;BME280;13413;52.336;21.200;2022-09-13T13:52:37;99834.67;;;20.23;55.76
25510;BME280;13413;52.336;21.200;2022-09-13T13:56:14;99828.48;;;20.14;55.94
25510;BME280;13413;52.336;21.200;2022-09-13T13:59:36;99830.13;;;20.10;56.19
25510;BME280;13413;52.336;21.200;2022-09-13T14:03:02;99827.10;;;20.03;56.17
25510;BME280;13413;52.336;21.200;2022-09-13T14:06:30;99826.33;;;20.02;56.56
25510;BME280;13413;52.336;21.200;2022-09-13T14:10:10;99828.68;;;20.10;56.46
25510;BME280;13413;52.336;21.200;2022-09-13T14:13:57;99828.46;;;20.13;56.43
25510;BME280;13413;52.336;21.200;2022-09-13T14:21:22;99812.23;;;20.16;56.66
25510;BME280;13413;52.336;21.200;2022-09-13T14:24:43;99809.03;;;20.16;56.82
25510;BME280;13413;52.336;21.200;2022-09-13T14:28:02;99802.55;;;20.13;56.84
25510;BME280;13413;52.336;21.200;2022-09-13T14:31:24;99799.27;;;20.12;57.03
25510;BME280;13413;52.336;21.200;2022-09-13T14:34:52;99791.86;;;20.11;57.18
25510;BME280;13413;52.336;21.200;2022-09-13T14:38:28;99786.82;;;20.12;57.32
25510;BME280;13413;52.336;21.200;2022-09-13T14:41:48;99776.84;;;20.12;57.29
25510;BME280;13413;52.336;21.200;2022-09-13T14:45:17;99776.11;;;20.09;57.54
25510;BME280;13413;52.336;21.200;2022-09-13T14:48:40;99768.65;;;20.11;57.71
25510;BME280;13413;52.336;21.200;2022-09-13T14:52:04;99767.86;;;20.12;57.80
25510;BME280;13413;52.336;21.200;2022-09-13T14:55:35;99764.36;;;20.12;57.99
25510;BME280;13413;52.336;21.200;2022-09-13T14:58:59;99755.75;;;20.08;58.16
25510;BME280;13413;52.336;21.200;2022-09-13T15:02:21;99751.15;;;20.06;58.22
25510;BME280;13413;52.336;21.200;2022-09-13T15:05:48;99743.52;;;20.04;58.32
25510;BME280;13413;52.336;21.200;2022-09-13T15:09:26;99743.17;;;20.02;58.50
25510;BME280;13413;52.336;21.200;2022-09-13T15:12:52;99748.25;;;19.98;58.55
25510;BME280;13413;52.336;21.200;2022-09-13T15:16:30;99745.31;;;19.95;58.70
25510;BME280;13413;52.336;21.200;2022-09-13T15:19:51;99742.86;;;19.98;58.78
25510;BME280;13413;52.336;21.200;2022-09-13T15:23:35;99740.25;;;19.96;58.87
25510;BME280;13413;52.336;21.200;2022-09-13T15:27:05;99735.16;;;19.89;59.17
25510;BME280;13413;52.336;21.200;2022-09-13T15:30:38;99733.59;;;19.88;59.37
25510;BME280;13413;52.336;21.200;2022-09-13T15:34:18;99730.98;;;19.89;59.68
25510;BME280;13413;52.336;21.200;2022-09-13T15:38:01;99726.65;;;19.88;59.77
25510;BME280;13413;52.336;21.200;2022-09-13T15:41:50;99731.34;;;19.88;59.72
25510;BME280;13413;52.336;21.200;2022-09-13T15:45:11;99728.09;;;19.86;59.94
25510;BME280;13413;52.336;21.200;2022-09-13T15:48:37;99726.95;;;19.90;60.07
25510;BME280;13413;52.336;21.200;2022-09-13T15:51:58;99723.86;;;19.98;60.05
25510;BME280;13413;52.336;21.200;2022-09-13T15:55:19;99721.17;;;19.95;59.87
25510;BME280;13413;52.336;21.200;2022-09-13T15:58:39;99723.64;;;19.88;60.01
25510;BME280;13413;52.336;21.200;2022-09-13T16:02:00;99721.61;;;19.90;60.06
25510;BME280;13413;52.336;21.200;2022-09-13T16:05:21;99711.88;;;19.90;60.04
25510;BME280;13413;52.336;21.200;2022-09-13T16:08:43;99707.69;;;19.92;60.20
25510;BME280;13413;52.336;21.200;2022-09-13T16:12:02;99700.70;;;19.88;60.33
25510;BME280;13413;52.336;21.200;2022-09-13T16:15:29;99699.91;;;19.85;60.46
25510;BME280;13413;52.336;21.200;2022-09-13T16:18:55;99691.20;;;19.81;60.58
25510;BME280;13413;52.336;21.200;2022-09-13T16:22:42;99694.14;;;19.83;60.60
25510;BME280;13413;52.336;21.200;2022-09-13T16:26:02;99688.98;;;19.84;60.68
25510;BME280;13413;52.336;21.200;2022-09-13T16:29:23;99679.80;;;19.77;60.81
25510;BME280;13413;52.336;21.200;2022-09-13T16:32:43;99678.77;;;19.72;60.93
25510;BME280;13413;52.336;21.200;2022-09-13T16:36:11;99678.33;;;19.66;61.08
25510;BME280;13413;52.336;21.200;2022-09-13T16:39:44;99679.40;;;19.62;61.16
25510;BME280;13413;52.336;21.200;2022-09-13T16:43:04;99678.42;;;19.57;61.29
25510;BME280;13413;52.336;21.200;2022-09-13T16:46:23;99673.88;;;19.55;61.38
25510;BME280;13413;52.336;21.200;2022-09-13T16:49:57;99677.13;;;19.52;61.54
25510;BME280;13413;52.336;21.200;2022-09-13T16:53:16;99674.81;;;19.52;61.59
25510;BME280;13413;52.336;21.200;2022-09-13T16:56:35;99676.71;;;19.49;61.67
25510;BME280;13413;52.336;21.200;2022-09-13T16:59:55;99672.64;;;19.46;61.74
25510;BME280;13413;52.336;21.200;2022-09-13T17:03:14;99673.85;;;19.43;61.86
25510;BME280;13413;52.336;21.200;2022-09-13T17:06:34;99674.34;;;19.43;61.98
25510;BME280;13413;52.336;21.200;2022-09-13T17:10:09;99672.26;;;19.40;62.11
25510;BME280;13413;52.336;21.200;2022-09-13T17:13:29;99665.14;;;19.38;62.11
25510;BME280;13413;52.336;21.200;2022-09-13T17:17:04;99663.65;;;19.34;62.23
25510;BME280;13413;52.336;21.200;2022-09-13T17:20:30;99665.55;;;19.31;62.33
25510;BME280;13413;52.336;21.200;2022-09-13T17:24:03;99666.27;;;19.26;62.48
25510;BME280;13413;52.336;21.200;2022-09-13T17:27:23;99662.69;;;19.23;62.55
25510;BME280;13413;52.336;21.200;2022-09-13T17:30:43;99661.58;;;19.21;62.68
25510;BME280;13413;52.336;21.200;2022-09-13T17:34:16;99667.45;;;19.21;62.65
25510;BME280;13413;52.336;21.200;2022-09-13T17:37:35;99661.39;;;19.23;62.63
25510;BME280;13413;52.336;21.200;2022-09-13T17:41:00;99658.38;;;19.23;62.65
25510;BME280;13413;52.336;21.200;2022-09-13T17:44:20;99657.27;;;19.16;62.79
25510;BME280;13413;52.336;21.200;2022-09-13T17:47:39;99652.67;;;19.14;62.93
25510;BME280;13413;52.336;21.200;2022-09-13T17:51:02;99650.92;;;19.13;62.93
25510;BME280;13413;52.336;21.200;2022-09-13T17:54:29;99654.93;;;19.11;63.03
25510;BME280;13413;52.336;21.200;2022-09-13T17:57:50;99658.73;;;19.10;63.08
25510;BME280;13413;52.336;21.200;2022-09-13T18:01:10;99655.94;;;19.06;63.25
25510;BME280;13413;52.336;21.200;2022-09-13T18:04:29;99651.80;;;19.03;63.25
25510;BME280;13413;52.336;21.200;2022-09-13T18:07:48;99654.26;;;19.04;63.29
25510;BME280;13413;52.336;21.200;2022-09-13T18:11:09;99651.48;;;19.03;63.32
25510;BME280;13413;52.336;21.200;2022-09-13T18:14:30;99646.49;;;19.04;63.30
25510;BME280;13413;52.336;21.200;2022-09-13T18:17:50;99650.05;;;19.04;63.29
25510;BME280;13413;52.336;21.200;2022-09-13T18:21:10;99649.70;;;19.06;63.30
25510;BME280;13413;52.336;21.200;2022-09-13T18:24:29;99649.21;;;19.05;63.27
25510;BME280;13413;52.336;21.200;2022-09-13T18:27:48;99648.57;;;19.06;63.30
25510;BME280;13413;52.336;21.200;2022-09-13T18:31:11;99642.98;;;19.06;63.28
25510;BME280;13413;52.336;21.200;2022-09-13T18:34:31;99633.90;;;19.06;63.31
25510;BME280;13413;52.336;21.200;2022-09-13T18:38:05;99626.73;;;19.05;63.28
25510;BME280;13413;52.336;21.200;2022-09-13T18:41:26;99618.53;;;19.02;63.34
25510;BME280;13413;52.336;21.200;2022-09-13T18:44:48;99617.88;;;19.02;63.38
25510;BME280;13413;52.336;21.200;2022-09-13T18:48:08;99613.58;;;19.03;63.27
25510;BME280;13413;52.336;21.200;2022-09-13T18:51:30;99610.10;;;19.04;63.23
25510;BME280;13413;52.336;21.200;2022-09-13T18:54:50;99606.04;;;19.04;63.23
25510;BME280;13413;52.336;21.200;2022-09-13T18:58:23;99603.20;;;19.03;63.29
25510;BME280;13413;52.336;21.200;2022-09-13T19:01:44;99602.60;;;19.01;63.31
25510;BME280;13413;52.336;21.200;2022-09-13T19:05:05;99597.49;;;19.01;63.32
25510;BME280;13413;52.336;21.200;2022-09-13T19:08:38;99595.27;;;19.00;63.37
25510;BME280;13413;52.336;21.200;2022-09-13T19:11:57;99588.56;;;19.00;63.35
25510;BME280;13413;52.336;21.200;2022-09-13T19:15:16;99587.98;;;18.98;63.43
25510;BME280;13413;52.336;21.200;2022-09-13T19:18:37;99583.79;;;18.97;63.46
25510;BME280;13413;52.336;21.200;2022-09-13T19:21:58;99578.23;;;18.96;63.49
25510;BME280;13413;52.336;21.200;2022-09-13T19:25:18;99579.98;;;18.94;63.50
25510;BME280;13413;52.336;21.200;2022-09-13T19:28:53;99573.44;;;18.94;63.57
25510;BME280;13413;52.336;21.200;2022-09-13T19:32:13;99573.74;;;18.93;63.62
25510;BME280;13413;52.336;21.200;2022-09-13T19:35:34;99571.80;;;18.92;63.64
25510;BME280;13413;52.336;21.200;2022-09-13T19:39:08;99567.35;;;18.90;63.65
25510;BME280;13413;52.336;21.200;2022-09-13T19:42:28;99559.62;;;18.90;63.73
25510;BME280;13413;52.336;21.200;2022-09-13T19:45:57;99555.89;;;18.90;63.69
25510;BME280;13413;52.336;21.200;2022-09-13T19:49:31;99549.64;;;18.87;63.77
25510;BME280;13413;52.336;21.200;2022-09-13T19:52:51;99546.01;;;18.86;63.80
25510;BME280;13413;52.336;21.200;2022-09-13T19:56:11;99549.41;;;18.82;63.92
25510;BME280;13413;52.336;21.200;2022-09-13T19:59:46;99551.77;;;18.82;63.99
25510;BME280;13413;52.336;21.200;2022-09-13T20:03:06;99550.13;;;18.79;63.99
25510;BME280;13413;52.336;21.200;2022-09-13T20:06:25;99543.27;;;18.73;64.20
25510;BME280;13413;52.336;21.200;2022-09-13T20:09:45;99546.00;;;18.73;64.25
25510;BME280;13413;52.336;21.200;2022-09-13T20:13:05;99542.90;;;18.74;64.24
25510;BME280;13413;52.336;21.200;2022-09-13T20:16:26;99537.30;;;18.73;64.30
25510;BME280;13413;52.336;21.200;2022-09-13T20:20:00;99528.23;;;18.71;64.42
25510;BME280;13413;52.336;21.200;2022-09-13T20:23:37;99519.85;;;18.70;64.42
25510;BME280;13413;52.336;21.200;2022-09-13T20:26:56;99519.15;;;18.70;64.40
25510;BME280;13413;52.336;21.200;2022-09-13T20:30:25;99516.69;;;18.71;64.42
25510;BME280;13413;52.336;21.200;2022-09-13T20:33:44;99510.77;;;18.70;64.54
25510;BME280;13413;52.336;21.200;2022-09-13T20:37:04;99507.55;;;18.71;64.49
25510;BME280;13413;52.336;21.200;2022-09-13T20:40:36;99504.64;;;18.69;64.59
25510;BME280;13413;52.336;21.200;2022-09-13T20:43:55;99496.09;;;18.65;64.67
25510;BME280;13413;52.336;21.200;2022-09-13T20:47:14;99492.77;;;18.62;64.82
25510;BME280;13413;52.336;21.200;2022-09-13T20:50:40;99485.60;;;18.60;64.90
25510;BME280;13413;52.336;21.200;2022-09-13T20:54:14;99484.02;;;18.58;64.97
25510;BME280;13413;52.336;21.200;2022-09-13T20:57:33;99482.60;;;18.57;65.01
25510;BME280;13413;52.336;21.200;2022-09-13T21:00:53;99482.45;;;18.57;65.07
25510;BME280;13413;52.336;21.200;2022-09-13T21:04:26;99482.33;;;18.57;65.07
25510;BME280;13413;52.336;21.200;2022-09-13T21:07:45;99479.42;;;18.56;65.19
25510;BME280;13413;52.336;21.200;2022-09-13T21:11:04;99480.03;;;18.57;65.21
25510;BME280;13413;52.336;21.200;2022-09-13T21:14:37;99478.79;;;18.57;65.27
25510;BME280;13413;52.336;21.200;2022-09-13T21:17:57;99474.42;;;18.59;65.26
25510;BME280;13413;52.336;21.200;2022-09-13T21:21:18;99471.41;;;18.63;65.24
25510;BME280;13413;52.336;21.200;2022-09-13T21:24:37;99464.02;;;18.65;65.30
25510;BME280;13413;52.336;21.200;2022-09-13T21:28:10;99464.70;;;18.65;65.24
25510;BME280;13413;52.336;21.200;2022-09-13T21:31:45;99464.95;;;18.68;65.22
25510;BME280;13413;52.336;21.200;2022-09-13T21:35:04;99467.16;;;18.72;65.24
25510;BME280;13413;52.336;21.200;2022-09-13T21:38:37;99467.96;;;18.75;65.34
25510;BME280;13413;52.336;21.200;2022-09-13T21:41:56;99469.00;;;18.78;65.33
25510;BME280;13413;52.336;21.200;2022-09-13T21:45:15;99468.19;;;18.78;65.38
25510;BME280;13413;52.336;21.200;2022-09-13T21:48:34;99476.64;;;18.77;65.42
25510;BME280;13413;52.336;21.200;2022-09-13T21:51:54;99472.45;;;18.79;65.55
25510;BME280;13413;52.336;21.200;2022-09-13T21:55:13;99472.47;;;18.80;65.58